sensor_id;sensor_type;location;lat;lon;timestamp;pressure;altitude;pressure_sealevel;temperature;humidity
77019;BME280;66044;53.142;17.962;2022-12-17T00:00:28;101406.71;;;-4.36;70.49
77019;BME280;66044;53.142;17.962;2022-12-17T00:03:27;101411.17;;;-4.42;70.47
77019;BME280;66044;53.142;17.962;2022-12-17T00:06:11;101409.70;;;-4.48;70.50
77019;BME280;66044;53.142;17.962;2022-12-17T00:08:56;101408.15;;;-4.52;70.61
77019;BME280;66044;53.142;17.962;2022-12-17T00:11:46;101414.65;;;-4.52;70.58
77019;BME280;66044;53.142;17.962;2022-12-17T00:14:31;101411.71;;;-4.52;71.00
77019;BME280;66044;53.142;17.962;2022-12-17T00:17:15;101417.00;;;-4.52;70.95
77019;BME280;66044;53.142;17.962;2022-12-17T00:20:00;101411.17;;;-4.52;71.07
77019;BME280;66044;53.142;17.962;2022-12-17T00:22:45;101413.94;;;-4.49;71.11
77019;BME280;66044;53.142;17.962;2022-12-17T00:25:30;101416.30;;;-4.42;70.91
77019;BME280;66044;53.142;17.962;2022-12-17T00:28:15;101424.20;;;-4.33;70.97
77019;BME280;66044;53.142;17.962;2022-12-17T00:31:00;101424.13;;;-4.24;71.16
77019;BME280;66044;53.142;17.962;2022-12-17T00:33:45;101424.52;;;-4.15;71.42
77019;BME280;66044;53.142;17.962;2022-12-17T00:36:30;101429.89;;;-4.07;70.22
77019;BME280;66044;53.142;17.962;2022-12-17T00:39:15;101432.63;;;-4.00;70.62
77019;BME280;66044;53.142;17.962;2022-12-17T00:41:59;101434.34;;;-3.94;70.85
77019;BME280;66044;53.142;17.962;2022-12-17T00:44:44;101433.84;;;-3.91;70.93
77019;BME280;66044;53.142;17.962;2022-12-17T00:47:29;101435.38;;;-3.86;70.28
77019;BME280;66044;53.142;17.962;2022-12-17T00:50:14;101433.48;;;-3.85;70.95
77019;BME280;66044;53.142;17.962;2022-12-17T00:52:59;101440.13;;;-3.84;70.94
77019;BME280;66044;53.142;17.962;2022-12-17T00:55:43;101441.07;;;-3.84;70.99
77019;BME280;66044;53.142;17.962;2022-12-17T00:58:28;101439.25;;;-3.85;71.03
77019;BME280;66044;53.142;17.962;2022-12-17T01:01:13;101439.23;;;-3.89;71.28
77019;BME280;66044;53.142;17.962;2022-12-17T01:03:58;101444.27;;;-3.93;70.73
77019;BME280;66044;53.142;17.962;2022-12-17T01:06:43;101450.89;;;-3.98;71.09
77019;BME280;66044;53.142;17.962;2022-12-17T01:09:28;101457.46;;;-4.01;71.03
77019;BME280;66044;53.142;17.962;2022-12-17T01:12:13;101460.46;;;-4.03;71.31
77019;BME280;66044;53.142;17.962;2022-12-17T01:14:57;101460.95;;;-4.06;71.33
77019;BME280;66044;53.142;17.962;2022-12-17T01:17:45;101463.80;;;-4.07;70.90
77019;BME280;66044;53.142;17.962;2022-12-17T01:20:31;101468.00;;;-4.04;71.65
77019;BME280;66044;53.142;17.962;2022-12-17T01:23:16;101474.52;;;-3.98;71.04
77019;BME280;66044;53.142;17.962;2022-12-17T01:26:00;101477.55;;;-3.92;71.58
77019;BME280;66044;53.142;17.962;2022-12-17T01:28:45;101485.62;;;-3.83;71.38
77019;BME280;66044;53.142;17.962;2022-12-17T01:31:30;101483.34;;;-3.74;71.15
77019;BME280;66044;53.142;17.962;2022-12-17T01:34:15;101486.50;;;-3.67;71.21
77019;BME280;66044;53.142;17.962;2022-12-17T01:37:00;101485.98;;;-3.62;71.04
77019;BME280;66044;53.142;17.962;2022-12-17T01:39:45;101489.66;;;-3.57;71.47
77019;BME280;66044;53.142;17.962;2022-12-17T01:42:44;101489.48;;;-3.53;71.37
77019;BME280;66044;53.142;17.962;2022-12-17T01:45:41;101493.23;;;-3.53;71.30
77019;BME280;66044;53.142;17.962;2022-12-17T01:48:38;101493.42;;;-3.53;71.84
77019;BME280;66044;53.142;17.962;2022-12-17T01:51:24;101489.05;;;-3.55;71.54
77019;BME280;66044;53.142;17.962;2022-12-17T01:54:11;101482.96;;;-3.55;71.49
77019;BME280;66044;53.142;17.962;2022-12-17T01:56:57;101481.05;;;-3.54;71.90
77019;BME280;66044;53.142;17.962;2022-12-17T01:59:47;101476.38;;;-3.54;71.67
77019;BME280;66044;53.142;17.962;2022-12-17T02:02:34;101475.25;;;-3.53;71.96
77019;BME280;66044;53.142;17.962;2022-12-17T02:05:22;101477.62;;;-3.51;72.20
77019;BME280;66044;53.142;17.962;2022-12-17T02:08:36;101472.85;;;-3.49;72.27
77019;BME280;66044;53.142;17.962;2022-12-17T02:14:51;101483.66;;;-3.36;72.51
77019;BME280;66044;53.142;17.962;2022-12-17T02:17:48;101483.45;;;-3.25;71.90
77019;BME280;66044;53.142;17.962;2022-12-17T02:20:38;101486.76;;;-3.14;72.15
77019;BME280;66044;53.142;17.962;2022-12-17T02:23:37;101480.51;;;-3.01;71.67
77019;BME280;66044;53.142;17.962;2022-12-17T02:29:20;101480.71;;;-2.80;71.71
77019;BME280;66044;53.142;17.962;2022-12-17T02:32:08;101482.80;;;-2.73;71.87
77019;BME280;66044;53.142;17.962;2022-12-17T02:34:55;101482.59;;;-2.69;71.38
77019;BME280;66044;53.142;17.962;2022-12-17T02:37:47;101484.46;;;-2.65;71.74
77019;BME280;66044;53.142;17.962;2022-12-17T02:40:36;101485.55;;;-2.62;71.62
77019;BME280;66044;53.142;17.962;2022-12-17T02:43:24;101489.08;;;-2.60;71.35
77019;BME280;66044;53.142;17.962;2022-12-17T02:46:09;101488.45;;;-2.60;71.73
77019;BME280;66044;53.142;17.962;2022-12-17T02:48:56;101489.61;;;-2.59;71.54
77019;BME280;66044;53.142;17.962;2022-12-17T02:51:42;101494.14;;;-2.58;71.53
77019;BME280;66044;53.142;17.962;2022-12-17T02:54:31;101501.58;;;-2.57;71.41
77019;BME280;66044;53.142;17.962;2022-12-17T02:57:17;101498.14;;;-2.58;71.61
77019;BME280;66044;53.142;17.962;2022-12-17T03:00:03;101498.75;;;-2.58;71.67
77019;BME280;66044;53.142;17.962;2022-12-17T03:02:48;101499.96;;;-2.60;71.30
77019;BME280;66044;53.142;17.962;2022-12-17T03:05:33;101500.02;;;-2.61;71.72
77019;BME280;66044;53.142;17.962;2022-12-17T03:08:18;101498.58;;;-2.62;71.52
77019;BME280;66044;53.142;17.962;2022-12-17T03:11:03;101505.41;;;-2.62;71.51
77019;BME280;66044;53.142;17.962;2022-12-17T03:13:48;101503.03;;;-2.54;71.51
77019;BME280;66044;53.142;17.962;2022-12-17T03:16:34;101499.04;;;-2.45;71.37
77019;BME280;66044;53.142;17.962;2022-12-17T03:19:18;101498.83;;;-2.36;71.37
77019;BME280;66044;53.142;17.962;2022-12-17T03:22:03;101496.87;;;-2.27;71.37
77019;BME280;66044;53.142;17.962;2022-12-17T03:24:48;101496.36;;;-2.19;71.09
77019;BME280;66044;53.142;17.962;2022-12-17T03:27:33;101496.36;;;-2.15;71.27
77019;BME280;66044;53.142;17.962;2022-12-17T03:30:18;101493.84;;;-2.15;71.22
77019;BME280;66044;53.142;17.962;2022-12-17T03:33:03;101498.97;;;-2.13;71.33
77019;BME280;66044;53.142;17.962;2022-12-17T03:35:51;101505.16;;;-2.13;71.16
77019;BME280;66044;53.142;17.962;2022-12-17T03:38:36;101507.73;;;-2.15;71.12
77019;BME280;66044;53.142;17.962;2022-12-17T03:41:21;101509.52;;;-2.19;71.22
77019;BME280;66044;53.142;17.962;2022-12-17T03:44:06;101509.84;;;-2.26;71.29
77019;BME280;66044;53.142;17.962;2022-12-17T03:46:51;101510.44;;;-2.33;71.27
77019;BME280;66044;53.142;17.962;2022-12-17T03:49:36;101516.41;;;-2.39;71.41
77019;BME280;66044;53.142;17.962;2022-12-17T03:52:20;101520.70;;;-2.45;71.39
77019;BME280;66044;53.142;17.962;2022-12-17T03:55:06;101519.05;;;-2.50;71.45
77019;BME280;66044;53.142;17.962;2022-12-17T03:57:51;101519.62;;;-2.55;71.66
77019;BME280;66044;53.142;17.962;2022-12-17T04:00:36;101520.30;;;-2.58;71.68
77019;BME280;66044;53.142;17.962;2022-12-17T04:03:20;101519.48;;;-2.61;71.64
77019;BME280;66044;53.142;17.962;2022-12-17T04:06:05;101525.16;;;-2.56;71.70
77019;BME280;66044;53.142;17.962;2022-12-17T04:08:50;101526.36;;;-2.48;71.37
77019;BME280;66044;53.142;17.962;2022-12-17T04:11:35;101531.86;;;-2.41;71.69
77019;BME280;66044;53.142;17.962;2022-12-17T04:14:20;101529.15;;;-2.36;71.17
77019;BME280;66044;53.142;17.962;2022-12-17T04:17:05;101534.23;;;-2.35;71.16
77019;BME280;66044;53.142;17.962;2022-12-17T04:19:50;101535.20;;;-2.34;71.41
77019;BME280;66044;53.142;17.962;2022-12-17T04:22:34;101534.88;;;-2.34;71.49
77019;BME280;66044;53.142;17.962;2022-12-17T04:25:19;101530.63;;;-2.34;71.58
77019;BME280;66044;53.142;17.962;2022-12-17T04:28:04;101535.08;;;-2.36;71.50
77019;BME280;66044;53.142;17.962;2022-12-17T04:30:49;101536.22;;;-2.40;71.58
77019;BME280;66044;53.142;17.962;2022-12-17T04:33:34;101536.10;;;-2.44;71.52
77019;BME280;66044;53.142;17.962;2022-12-17T04:36:18;101532.61;;;-2.50;71.53
77019;BME280;66044;53.142;17.962;2022-12-17T04:39:03;101536.67;;;-2.54;71.63
77019;BME280;66044;53.142;17.962;2022-12-17T04:41:48;101535.15;;;-2.58;71.58
77019;BME280;66044;53.142;17.962;2022-12-17T04:44:33;101539.89;;;-2.60;71.65
77019;BME280;66044;53.142;17.962;2022-12-17T04:47:18;101542.33;;;-2.61;71.96
77019;BME280;66044;53.142;17.962;2022-12-17T04:50:03;101551.34;;;-2.60;71.66
77019;BME280;66044;53.142;17.962;2022-12-17T04:52:49;101555.48;;;-2.52;71.49
77019;BME280;66044;53.142;17.962;2022-12-17T04:55:34;101559.09;;;-2.44;71.53
77019;BME280;66044;53.142;17.962;2022-12-17T04:58:18;101562.94;;;-2.37;71.58
77019;BME280;66044;53.142;17.962;2022-12-17T05:01:04;101566.86;;;-2.28;71.56
77019;BME280;66044;53.142;17.962;2022-12-17T05:03:48;101570.51;;;-2.21;71.49
77019;BME280;66044;53.142;17.962;2022-12-17T05:06:33;101578.71;;;-2.17;71.31
77019;BME280;66044;53.142;17.962;2022-12-17T05:09:18;101581.73;;;-2.16;71.46
77019;BME280;66044;53.142;17.962;2022-12-17T05:12:03;101580.17;;;-2.17;71.49
77019;BME280;66044;53.142;17.962;2022-12-17T05:14:48;101584.80;;;-2.18;71.47
77019;BME280;66044;53.142;17.962;2022-12-17T05:17:33;101588.10;;;-2.19;71.67
77019;BME280;66044;53.142;17.962;2022-12-17T05:20:18;101593.29;;;-2.20;71.61
77019;BME280;66044;53.142;17.962;2022-12-17T05:23:04;101591.88;;;-2.21;71.72
77019;BME280;66044;53.142;17.962;2022-12-17T05:25:57;101593.18;;;-2.21;71.61
77019;BME280;66044;53.142;17.962;2022-12-17T05:28:46;101599.90;;;-2.22;71.80
77019;BME280;66044;53.142;17.962;2022-12-17T05:31:31;101601.68;;;-2.26;71.57
77019;BME280;66044;53.142;17.962;2022-12-17T05:34:16;101609.77;;;-2.29;71.72
77019;BME280;66044;53.142;17.962;2022-12-17T05:37:01;101615.56;;;-2.31;71.76
77019;BME280;66044;53.142;17.962;2022-12-17T05:39:46;101619.92;;;-2.24;71.80
77019;BME280;66044;53.142;17.962;2022-12-17T05:42:31;101625.20;;;-2.17;71.58
77019;BME280;66044;53.142;17.962;2022-12-17T05:45:16;101625.56;;;-2.10;71.68
77019;BME280;66044;53.142;17.962;2022-12-17T05:48:01;101622.01;;;-2.02;71.46
77019;BME280;66044;53.142;17.962;2022-12-17T05:50:49;101623.23;;;-1.95;71.47
77019;BME280;66044;53.142;17.962;2022-12-17T05:53:35;101627.81;;;-1.89;71.54
77019;BME280;66044;53.142;17.962;2022-12-17T05:56:20;101631.25;;;-1.85;71.38
77019;BME280;66044;53.142;17.962;2022-12-17T05:59:05;101633.55;;;-1.82;71.51
77019;BME280;66044;53.142;17.962;2022-12-17T06:01:50;101644.42;;;-1.81;71.45
77019;BME280;66044;53.142;17.962;2022-12-17T06:04:35;101644.89;;;-1.83;71.33
77019;BME280;66044;53.142;17.962;2022-12-17T06:07:19;101648.09;;;-1.87;71.37
77019;BME280;66044;53.142;17.962;2022-12-17T06:10:04;101651.80;;;-1.89;71.41
77019;BME280;66044;53.142;17.962;2022-12-17T06:12:56;101650.58;;;-1.94;71.40
77019;BME280;66044;53.142;17.962;2022-12-17T06:15:41;101654.80;;;-1.97;71.46
77019;BME280;66044;53.142;17.962;2022-12-17T06:18:26;101662.25;;;-2.02;71.50
77019;BME280;66044;53.142;17.962;2022-12-17T06:21:10;101663.30;;;-2.05;71.50
77019;BME280;66044;53.142;17.962;2022-12-17T06:23:55;101665.59;;;-2.08;71.49
77019;BME280;66044;53.142;17.962;2022-12-17T06:26:54;101667.02;;;-2.02;71.54
77019;BME280;66044;53.142;17.962;2022-12-17T06:29:39;101671.39;;;-1.96;71.45
77019;BME280;66044;53.142;17.962;2022-12-17T06:32:24;101673.18;;;-1.89;71.34
77019;BME280;66044;53.142;17.962;2022-12-17T06:35:10;101674.31;;;-1.85;71.08
77019;BME280;66044;53.142;17.962;2022-12-17T06:38:02;101676.73;;;-1.82;71.13
77019;BME280;66044;53.142;17.962;2022-12-17T06:40:48;101680.70;;;-1.83;71.13
77019;BME280;66044;53.142;17.962;2022-12-17T06:43:33;101677.63;;;-1.84;71.18
77019;BME280;66044;53.142;17.962;2022-12-17T06:46:18;101682.57;;;-1.84;71.26
77019;BME280;66044;53.142;17.962;2022-12-17T06:49:02;101685.47;;;-1.87;71.16
77019;BME280;66044;53.142;17.962;2022-12-17T06:51:48;101689.25;;;-1.91;71.17
77019;BME280;66044;53.142;17.962;2022-12-17T06:54:33;101693.75;;;-1.93;71.09
77019;BME280;66044;53.142;17.962;2022-12-17T06:57:18;101698.46;;;-1.97;71.30
77019;BME280;66044;53.142;17.962;2022-12-17T07:00:04;101699.37;;;-2.01;71.32
77019;BME280;66044;53.142;17.962;2022-12-17T07:02:56;101704.84;;;-2.05;71.41
77019;BME280;66044;53.142;17.962;2022-12-17T07:05:41;101707.73;;;-2.07;71.24
77019;BME280;66044;53.142;17.962;2022-12-17T07:08:28;101713.42;;;-2.10;71.34
77019;BME280;66044;53.142;17.962;2022-12-17T07:11:13;101711.86;;;-2.11;71.35
77019;BME280;66044;53.142;17.962;2022-12-17T07:13:57;101711.82;;;-2.06;71.17
77019;BME280;66044;53.142;17.962;2022-12-17T07:16:42;101719.55;;;-1.99;70.87
77019;BME280;66044;53.142;17.962;2022-12-17T07:19:27;101722.21;;;-1.91;71.11
77019;BME280;66044;53.142;17.962;2022-12-17T07:22:12;101722.79;;;-1.84;70.92
77019;BME280;66044;53.142;17.962;2022-12-17T07:24:57;101725.64;;;-1.77;70.88
77019;BME280;66044;53.142;17.962;2022-12-17T07:27:42;101730.69;;;-1.74;70.74
77019;BME280;66044;53.142;17.962;2022-12-17T07:30:27;101732.95;;;-1.72;70.79
77019;BME280;66044;53.142;17.962;2022-12-17T07:33:12;101741.05;;;-1.71;70.69
77019;BME280;66044;53.142;17.962;2022-12-17T07:35:56;101743.30;;;-1.71;70.84
77019;BME280;66044;53.142;17.962;2022-12-17T07:38:42;101748.99;;;-1.71;70.76
77019;BME280;66044;53.142;17.962;2022-12-17T07:41:27;101750.15;;;-1.73;70.70
77019;BME280;66044;53.142;17.962;2022-12-17T07:44:12;101756.27;;;-1.79;70.81
77019;BME280;66044;53.142;17.962;2022-12-17T07:46:56;101759.11;;;-1.81;70.78
77019;BME280;66044;53.142;17.962;2022-12-17T07:49:41;101757.89;;;-1.82;70.86
77019;BME280;66044;53.142;17.962;2022-12-17T07:52:43;101762.10;;;-1.81;70.81
77019;BME280;66044;53.142;17.962;2022-12-17T07:55:28;101764.34;;;-1.82;70.71
77019;BME280;66044;53.142;17.962;2022-12-17T07:58:13;101764.55;;;-1.84;70.64
77019;BME280;66044;53.142;17.962;2022-12-17T08:00:59;101770.10;;;-1.83;70.67
77019;BME280;66044;53.142;17.962;2022-12-17T08:03:44;101773.27;;;-1.81;70.89
77019;BME280;66044;53.142;17.962;2022-12-17T08:06:29;101781.65;;;-1.71;70.71
77019;BME280;66044;53.142;17.962;2022-12-17T08:09:14;101784.64;;;-1.63;70.41
77019;BME280;66044;53.142;17.962;2022-12-17T08:11:59;101790.86;;;-1.54;70.15
77019;BME280;66044;53.142;17.962;2022-12-17T08:14:44;101792.16;;;-1.47;70.14
77019;BME280;66044;53.142;17.962;2022-12-17T08:17:29;101790.73;;;-1.39;70.07
77019;BME280;66044;53.142;17.962;2022-12-17T08:20:14;101796.75;;;-1.32;70.13
77019;BME280;66044;53.142;17.962;2022-12-17T08:23:01;101800.92;;;-1.28;70.17
77019;BME280;66044;53.142;17.962;2022-12-17T08:25:46;101804.98;;;-1.24;70.22
77019;BME280;66044;53.142;17.962;2022-12-17T08:28:31;101805.91;;;-1.23;69.98
77019;BME280;66044;53.142;17.962;2022-12-17T08:31:17;101810.20;;;-1.24;69.79
77019;BME280;66044;53.142;17.962;2022-12-17T08:34:02;101810.70;;;-1.24;69.93
77019;BME280;66044;53.142;17.962;2022-12-17T08:36:51;101816.08;;;-1.23;69.74
77019;BME280;66044;53.142;17.962;2022-12-17T08:39:37;101811.41;;;-1.28;69.84
77019;BME280;66044;53.142;17.962;2022-12-17T08:42:22;101820.25;;;-1.30;69.64
77019;BME280;66044;53.142;17.962;2022-12-17T08:45:07;101827.49;;;-1.34;69.47
77019;BME280;66044;53.142;17.962;2022-12-17T08:47:52;101831.55;;;-1.37;69.59
77019;BME280;66044;53.142;17.962;2022-12-17T08:50:37;101830.05;;;-1.39;69.60
77019;BME280;66044;53.142;17.962;2022-12-17T08:53:22;101833.70;;;-1.38;69.52
77019;BME280;66044;53.142;17.962;2022-12-17T08:56:07;101833.39;;;-1.31;69.52
77019;BME280;66044;53.142;17.962;2022-12-17T08:58:52;101834.88;;;-1.22;69.31
77019;BME280;66044;53.142;17.962;2022-12-17T09:01:37;101836.71;;;-1.11;69.44
77019;BME280;66044;53.142;17.962;2022-12-17T09:04:22;101837.39;;;-1.03;69.26
77019;BME280;66044;53.142;17.962;2022-12-17T09:07:07;101837.29;;;-0.97;69.29
77019;BME280;66044;53.142;17.962;2022-12-17T09:10:08;101836.47;;;-0.93;69.08
77019;BME280;66044;53.142;17.962;2022-12-17T09:12:54;101833.75;;;-0.92;69.01
77019;BME280;66044;53.142;17.962;2022-12-17T09:15:53;101835.93;;;-0.92;69.12
77019;BME280;66044;53.142;17.962;2022-12-17T09:18:38;101838.85;;;-0.90;68.97
77019;BME280;66044;53.142;17.962;2022-12-17T09:21:26;101842.91;;;-0.90;68.96
77019;BME280;66044;53.142;17.962;2022-12-17T09:24:11;101847.86;;;-0.91;69.01
77019;BME280;66044;53.142;17.962;2022-12-17T09:26:56;101847.96;;;-0.95;68.86
77019;BME280;66044;53.142;17.962;2022-12-17T09:29:41;101858.00;;;-0.99;68.85
77019;BME280;66044;53.142;17.962;2022-12-17T09:32:26;101856.33;;;-1.06;68.48
77019;BME280;66044;53.142;17.962;2022-12-17T09:35:11;101856.13;;;-1.13;68.67
77019;BME280;66044;53.142;17.962;2022-12-17T09:37:56;101860.96;;;-1.14;68.87
77019;BME280;66044;53.142;17.962;2022-12-17T09:40:46;101862.38;;;-1.14;68.61
77019;BME280;66044;53.142;17.962;2022-12-17T09:43:41;101866.16;;;-1.03;68.64
77019;BME280;66044;53.142;17.962;2022-12-17T09:46:58;101866.73;;;-0.93;68.57
77019;BME280;66044;53.142;17.962;2022-12-17T09:49:46;101869.29;;;-0.83;68.67
77019;BME280;66044;53.142;17.962;2022-12-17T09:52:34;101869.91;;;-0.72;68.42
77019;BME280;66044;53.142;17.962;2022-12-17T09:55:27;101869.99;;;-0.63;68.41
77019;BME280;66044;53.142;17.962;2022-12-17T09:58:20;101873.04;;;-0.55;68.28
77019;BME280;66044;53.142;17.962;2022-12-17T10:01:13;101872.05;;;-0.52;67.93
77019;BME280;66044;53.142;17.962;2022-12-17T10:03:59;101879.13;;;-0.55;68.28
77019;BME280;66044;53.142;17.962;2022-12-17T10:06:45;101881.38;;;-0.57;68.16
77019;BME280;66044;53.142;17.962;2022-12-17T10:09:33;101878.42;;;-0.55;68.33
77019;BME280;66044;53.142;17.962;2022-12-17T10:12:19;101877.69;;;-0.54;67.88
77019;BME280;66044;53.142;17.962;2022-12-17T10:15:06;101877.96;;;-0.52;68.14
77019;BME280;66044;53.142;17.962;2022-12-17T10:17:51;101887.92;;;-0.53;68.18
77019;BME280;66044;53.142;17.962;2022-12-17T10:20:39;101890.28;;;-0.59;67.84
77019;BME280;66044;53.142;17.962;2022-12-17T10:23:29;101888.72;;;-0.64;68.08
77019;BME280;66044;53.142;17.962;2022-12-17T10:26:35;101896.11;;;-0.65;68.05
77019;BME280;66044;53.142;17.962;2022-12-17T10:29:23;101896.10;;;-0.71;67.92
77019;BME280;66044;53.142;17.962;2022-12-17T10:35:16;101900.89;;;-0.77;67.92
77019;BME280;66044;53.142;17.962;2022-12-17T10:38:18;101902.91;;;-0.77;67.74
77019;BME280;66044;53.142;17.962;2022-12-17T10:41:27;101905.81;;;-0.68;67.69
77019;BME280;66044;53.142;17.962;2022-12-17T10:44:27;101901.48;;;-0.61;67.75
77019;BME280;66044;53.142;17.962;2022-12-17T10:47:17;101903.71;;;-0.55;67.88
77019;BME280;66044;53.142;17.962;2022-12-17T10:50:09;101909.89;;;-0.52;67.77
77019;BME280;66044;53.142;17.962;2022-12-17T10:52:55;101907.50;;;-0.55;67.63
77019;BME280;66044;53.142;17.962;2022-12-17T10:55:52;101904.40;;;-0.54;68.01
77019;BME280;66044;53.142;17.962;2022-12-17T10:58:46;101905.23;;;-0.51;67.91
77019;BME280;66044;53.142;17.962;2022-12-17T11:01:33;101907.58;;;-0.49;67.39
77019;BME280;66044;53.142;17.962;2022-12-17T11:04:24;101905.84;;;-0.50;67.73
77019;BME280;66044;53.142;17.962;2022-12-17T11:07:14;101910.19;;;-0.51;67.86
77019;BME280;66044;53.142;17.962;2022-12-17T11:10:04;101915.33;;;-0.55;67.63
77019;BME280;66044;53.142;17.962;2022-12-17T11:12:53;101914.83;;;-0.59;67.38
77019;BME280;66044;53.142;17.962;2022-12-17T11:15:43;101914.55;;;-0.59;67.82
77019;BME280;66044;53.142;17.962;2022-12-17T11:18:36;101914.70;;;-0.58;67.56
77019;BME280;66044;53.142;17.962;2022-12-17T11:21:27;101916.91;;;-0.56;67.19
77019;BME280;66044;53.142;17.962;2022-12-17T11:24:22;101925.79;;;-0.54;67.22
77019;BME280;66044;53.142;17.962;2022-12-17T11:27:11;101923.92;;;-0.54;67.08
77019;BME280;66044;53.142;17.962;2022-12-17T11:29:58;101924.73;;;-0.47;66.57
77019;BME280;66044;53.142;17.962;2022-12-17T11:32:59;101924.55;;;-0.38;66.91
77019;BME280;66044;53.142;17.962;2022-12-17T11:39:08;101921.70;;;-0.16;66.63
77019;BME280;66044;53.142;17.962;2022-12-17T11:42:33;101926.91;;;-0.10;66.67
77019;BME280;66044;53.142;17.962;2022-12-17T11:45:37;101926.80;;;-0.05;66.33
77019;BME280;66044;53.142;17.962;2022-12-17T11:51:38;101932.42;;;-0.07;66.31
77019;BME280;66044;53.142;17.962;2022-12-17T11:54:28;101930.17;;;-0.08;66.54
77019;BME280;66044;53.142;17.962;2022-12-17T11:57:19;101938.52;;;-0.10;66.30
77019;BME280;66044;53.142;17.962;2022-12-17T12:00:22;101935.20;;;-0.11;66.26
77019;BME280;66044;53.142;17.962;2022-12-17T12:06:02;101924.73;;;-0.18;66.40
77019;BME280;66044;53.142;17.962;2022-12-17T12:12:03;101918.21;;;-0.25;66.34
77019;BME280;66044;53.142;17.962;2022-12-17T12:15:08;101919.77;;;-0.27;66.46
77019;BME280;66044;53.142;17.962;2022-12-17T12:21:38;101921.01;;;-0.35;66.57
77019;BME280;66044;53.142;17.962;2022-12-17T12:24:43;101917.91;;;-0.40;66.11
77019;BME280;66044;53.142;17.962;2022-12-17T12:27:49;101921.42;;;-0.32;66.21
77019;BME280;66044;53.142;17.962;2022-12-17T12:33:43;101930.47;;;-0.13;66.56
77019;BME280;66044;53.142;17.962;2022-12-17T12:36:28;101930.27;;;-0.03;66.56
77019;BME280;66044;53.142;17.962;2022-12-17T12:39:19;101934.75;;;0.02;66.36
77019;BME280;66044;53.142;17.962;2022-12-17T12:42:18;101932.67;;;0.05;66.24
77019;BME280;66044;53.142;17.962;2022-12-17T12:45:30;101935.64;;;0.06;66.21
77019;BME280;66044;53.142;17.962;2022-12-17T12:48:27;101941.35;;;0.01;66.13
77019;BME280;66044;53.142;17.962;2022-12-17T12:51:24;101941.40;;;-0.07;66.16
77019;BME280;66044;53.142;17.962;2022-12-17T12:54:26;101939.55;;;-0.14;65.94
77019;BME280;66044;53.142;17.962;2022-12-17T12:57:32;101943.85;;;-0.20;66.49
77019;BME280;66044;53.142;17.962;2022-12-17T13:00:27;101945.73;;;-0.23;66.36
77019;BME280;66044;53.142;17.962;2022-12-17T13:03:22;101943.80;;;-0.27;66.51
77019;BME280;66044;53.142;17.962;2022-12-17T13:06:10;101945.74;;;-0.31;66.48
77019;BME280;66044;53.142;17.962;2022-12-17T13:08:37;101944.44;;;-0.34;66.81
77019;BME280;66044;53.142;17.962;2022-12-17T13:11:35;101947.55;;;-0.34;66.66
77019;BME280;66044;53.142;17.962;2022-12-17T13:14:30;101953.67;;;-0.32;67.03
77019;BME280;66044;53.142;17.962;2022-12-17T13:17:02;101954.69;;;-0.32;66.70
77019;BME280;66044;53.142;17.962;2022-12-17T13:24:45;101959.42;;;-0.31;67.10
77019;BME280;66044;53.142;17.962;2022-12-17T13:36:06;101975.95;;;-0.01;66.84
77019;BME280;66044;53.142;17.962;2022-12-17T13:39:02;101981.47;;;0.08;66.94
77019;BME280;66044;53.142;17.962;2022-12-17T13:41:32;101987.85;;;0.12;67.02
77019;BME280;66044;53.142;17.962;2022-12-17T13:44:02;101994.10;;;0.12;67.02
77019;BME280;66044;53.142;17.962;2022-12-17T13:46:44;102000.42;;;0.10;66.70
77019;BME280;66044;53.142;17.962;2022-12-17T13:49:25;102004.27;;;0.08;66.92
77019;BME280;66044;53.142;17.962;2022-12-17T13:54:31;102014.20;;;0.04;66.84
77019;BME280;66044;53.142;17.962;2022-12-17T13:57:09;102016.67;;;0.01;67.19
77019;BME280;66044;53.142;17.962;2022-12-17T13:59:36;102021.08;;;-0.04;67.00
77019;BME280;66044;53.142;17.962;2022-12-17T14:02:22;102022.64;;;-0.06;67.35
77019;BME280;66044;53.142;17.962;2022-12-17T14:04:53;102025.48;;;-0.09;67.30
77019;BME280;66044;53.142;17.962;2022-12-17T14:07:21;102029.25;;;-0.12;67.41
77019;BME280;66044;53.142;17.962;2022-12-17T14:09:49;102030.31;;;-0.15;67.40
77019;BME280;66044;53.142;17.962;2022-12-17T14:12:18;102031.28;;;-0.18;67.45
77019;BME280;66044;53.142;17.962;2022-12-17T14:14:55;102036.54;;;-0.23;67.08
77019;BME280;66044;53.142;17.962;2022-12-17T14:17:28;102039.13;;;-0.27;67.10
77019;BME280;66044;53.142;17.962;2022-12-17T14:20:01;102043.30;;;-0.32;67.46
77019;BME280;66044;53.142;17.962;2022-12-17T14:22:33;102046.93;;;-0.35;67.71
77019;BME280;66044;53.142;17.962;2022-12-17T14:25:02;102052.48;;;-0.33;67.47
77019;BME280;66044;53.142;17.962;2022-12-17T14:27:32;102056.99;;;-0.29;67.63
77019;BME280;66044;53.142;17.962;2022-12-17T14:30:00;102064.78;;;-0.25;67.44
77019;BME280;66044;53.142;17.962;2022-12-17T14:32:35;102068.29;;;-0.20;67.69
77019;BME280;66044;53.142;17.962;2022-12-17T14:35:02;102069.11;;;-0.15;67.77
77019;BME280;66044;53.142;17.962;2022-12-17T14:37:29;102075.34;;;-0.16;67.51
77019;BME280;66044;53.142;17.962;2022-12-17T14:40:01;102073.64;;;-0.18;67.38
77019;BME280;66044;53.142;17.962;2022-12-17T14:42:28;102074.44;;;-0.21;67.38
77019;BME280;66044;53.142;17.962;2022-12-17T14:45:04;102071.70;;;-0.26;67.92
77019;BME280;66044;53.142;17.962;2022-12-17T14:47:36;102073.04;;;-0.31;67.65
77019;BME280;66044;53.142;17.962;2022-12-17T14:54:58;102077.38;;;-0.55;68.03
77019;BME280;66044;53.142;17.962;2022-12-17T14:57:25;102076.55;;;-0.64;67.73
77019;BME280;66044;53.142;17.962;2022-12-17T14:59:51;102077.10;;;-0.75;67.87
77019;BME280;66044;53.142;17.962;2022-12-17T15:02:26;102081.01;;;-0.87;67.98
77019;BME280;66044;53.142;17.962;2022-12-17T15:04:59;102082.70;;;-0.96;68.28
77019;BME280;66044;53.142;17.962;2022-12-17T15:07:29;102082.36;;;-1.05;68.12